sensor_id;sensor_type;location;lat;lon;timestamp;pressure;altitude;pressure_sealevel;temperature;humidity
73594;BME280;64760;53.404;23.498;2024-02-16T00:00:25;100303.53;;;10.28;55.91
73594;BME280;64760;53.404;23.498;2024-02-16T00:03:12;100294.97;;;10.32;56.09
73594;BME280;64760;53.404;23.498;2024-02-16T00:05:38;100306.16;;;10.36;56.26
73594;BME280;64760;53.404;23.498;2024-02-16T00:08:05;100300.50;;;10.31;56.15
73594;BME280;64760;53.404;23.498;2024-02-16T00:10:31;100299.53;;;10.24;56.27
73594;BME280;64760;53.404;23.498;2024-02-16T00:12:57;100299.84;;;10.29;56.52
73594;BME280;64760;53.404;23.498;2024-02-16T00:15:23;100297.06;;;10.22;56.32
73594;BME280;64760;53.404;23.498;2024-02-16T00:17:49;100294.66;;;10.27;56.02
73594;BME280;64760;53.404;23.498;2024-02-16T00:20:16;100308.72;;;10.29;56.30
73594;BME280;64760;53.404;23.498;2024-02-16T00:22:42;100295.66;;;10.49;55.64
73594;BME280;64760;53.404;23.498;2024-02-16T00:25:08;100295.97;;;10.31;55.77
73594;BME280;64760;53.404;23.498;2024-02-16T00:27:35;100295.06;;;10.39;56.21
73594;BME280;64760;53.404;23.498;2024-02-16T00:30:01;100302.00;;;10.48;55.77
73594;BME280;64760;53.404;23.498;2024-02-16T00:32:28;100300.97;;;10.34;56.27
73594;BME280;64760;53.404;23.498;2024-02-16T00:34:57;100287.84;;;10.40;55.87
73594;BME280;64760;53.404;23.498;2024-02-16T00:37:23;100292.78;;;10.51;55.82
73594;BME280;64760;53.404;23.498;2024-02-16T00:39:50;100306.56;;;10.25;56.43
73594;BME280;64760;53.404;23.498;2024-02-16T00:42:18;100295.78;;;10.33;56.61
73594;BME280;64760;53.404;23.498;2024-02-16T00:44:45;100301.53;;;10.30;56.47
73594;BME280;64760;53.404;23.498;2024-02-16T00:47:12;100292.88;;;10.43;56.18
73594;BME280;64760;53.404;23.498;2024-02-16T00:49:38;100298.50;;;10.48;56.31
73594;BME280;64760;53.404;23.498;2024-02-16T00:52:04;100298.94;;;10.36;56.09
73594;BME280;64760;53.404;23.498;2024-02-16T00:54:31;100292.28;;;10.47;55.80
73594;BME280;64760;53.404;23.498;2024-02-16T00:56:58;100290.00;;;10.44;55.98
73594;BME280;64760;53.404;23.498;2024-02-16T00:59:29;100296.16;;;10.30;56.85
73594;BME280;64760;53.404;23.498;2024-02-16T01:01:55;100297.59;;;10.18;57.19
73594;BME280;64760;53.404;23.498;2024-02-16T01:04:22;100294.66;;;10.27;56.87
73594;BME280;64760;53.404;23.498;2024-02-16T01:06:49;100296.75;;;10.17;56.99
73594;BME280;64760;53.404;23.498;2024-02-16T01:09:15;100292.47;;;9.85;57.83
73594;BME280;64760;53.404;23.498;2024-02-16T01:11:42;100292.50;;;10.00;57.47
73594;BME280;64760;53.404;23.498;2024-02-16T01:14:08;100290.78;;;10.07;57.45
73594;BME280;64760;53.404;23.498;2024-02-16T01:16:34;100291.81;;;10.06;57.20
73594;BME280;64760;53.404;23.498;2024-02-16T01:19:01;100291.59;;;10.08;57.08
73594;BME280;64760;53.404;23.498;2024-02-16T01:21:28;100287.25;;;10.15;57.14
73594;BME280;64760;53.404;23.498;2024-02-16T01:23:54;100288.22;;;10.14;57.05
73594;BME280;64760;53.404;23.498;2024-02-16T01:26:20;100283.13;;;10.27;56.83
73594;BME280;64760;53.404;23.498;2024-02-16T01:28:47;100282.56;;;10.09;57.42
73594;BME280;64760;53.404;23.498;2024-02-16T01:31:13;100281.22;;;9.90;58.11
73594;BME280;64760;53.404;23.498;2024-02-16T01:33:39;100283.47;;;10.01;57.51
73594;BME280;64760;53.404;23.498;2024-02-16T01:36:06;100278.66;;;10.19;57.39
73594;BME280;64760;53.404;23.498;2024-02-16T01:38:33;100285.16;;;10.25;56.91
73594;BME280;64760;53.404;23.498;2024-02-16T01:40:59;100286.28;;;10.30;56.55
73594;BME280;64760;53.404;23.498;2024-02-16T01:43:25;100275.50;;;10.16;57.16
73594;BME280;64760;53.404;23.498;2024-02-16T01:45:51;100286.38;;;10.14;57.53
73594;BME280;64760;53.404;23.498;2024-02-16T01:48:18;100281.31;;;9.97;57.80
73594;BME280;64760;53.404;23.498;2024-02-16T01:50:45;100276.34;;;9.94;57.87
73594;BME280;64760;53.404;23.498;2024-02-16T01:53:12;100274.53;;;10.09;57.49
73594;BME280;64760;53.404;23.498;2024-02-16T01:55:39;100274.44;;;10.25;57.02
73594;BME280;64760;53.404;23.498;2024-02-16T01:58:06;100270.53;;;10.05;57.35
73594;BME280;64760;53.404;23.498;2024-02-16T02:00:33;100267.03;;;10.04;57.40
73594;BME280;64760;53.404;23.498;2024-02-16T02:02:59;100269.59;;;9.98;57.38
73594;BME280;64760;53.404;23.498;2024-02-16T02:05:26;100275.44;;;10.01;57.32
73594;BME280;64760;53.404;23.498;2024-02-16T02:07:52;100268.06;;;10.26;57.43
73594;BME280;64760;53.404;23.498;2024-02-16T02:10:19;100263.19;;;10.07;57.42
73594;BME280;64760;53.404;23.498;2024-02-16T02:12:45;100263.28;;;10.13;57.25
73594;BME280;64760;53.404;23.498;2024-02-16T02:15:11;100282.53;;;10.17;56.99
73594;BME280;64760;53.404;23.498;2024-02-16T02:17:37;100268.19;;;10.10;57.28
73594;BME280;64760;53.404;23.498;2024-02-16T02:20:05;100264.50;;;10.11;57.54
73594;BME280;64760;53.404;23.498;2024-02-16T02:22:39;100266.09;;;10.20;57.27
73594;BME280;64760;53.404;23.498;2024-02-16T02:25:05;100267.59;;;10.22;57.17
73594;BME280;64760;53.404;23.498;2024-02-16T02:27:31;100268.06;;;10.26;56.81
73594;BME280;64760;53.404;23.498;2024-02-16T02:29:59;100272.88;;;10.30;57.05
73594;BME280;64760;53.404;23.498;2024-02-16T02:32:25;100270.44;;;10.21;57.18
73594;BME280;64760;53.404;23.498;2024-02-16T02:34:51;100268.44;;;10.23;57.01
73594;BME280;64760;53.404;23.498;2024-02-16T02:37:17;100267.47;;;10.16;57.35
73594;BME280;64760;53.404;23.498;2024-02-16T02:39:44;100274.38;;;10.10;57.42
73594;BME280;64760;53.404;23.498;2024-02-16T02:42:10;100281.47;;;10.26;57.09
73594;BME280;64760;53.404;23.498;2024-02-16T02:44:36;100283.88;;;10.13;57.71
73594;BME280;64760;53.404;23.498;2024-02-16T02:47:02;100277.03;;;10.10;57.56
73594;BME280;64760;53.404;23.498;2024-02-16T02:49:29;100271.09;;;10.00;57.68
73594;BME280;64760;53.404;23.498;2024-02-16T02:51:55;100275.44;;;10.24;57.49
73594;BME280;64760;53.404;23.498;2024-02-16T02:54:21;100266.03;;;10.28;56.98
73594;BME280;64760;53.404;23.498;2024-02-16T02:56:48;100266.31;;;10.33;56.70
73594;BME280;64760;53.404;23.498;2024-02-16T02:59:14;100263.72;;;10.25;57.07
73594;BME280;64760;53.404;23.498;2024-02-16T03:01:40;100271.50;;;10.34;56.96
73594;BME280;64760;53.404;23.498;2024-02-16T03:04:07;100269.75;;;10.27;57.59
73594;BME280;64760;53.404;23.498;2024-02-16T03:06:33;100268.44;;;10.23;57.27
73594;BME280;64760;53.404;23.498;2024-02-16T03:08:59;100273.88;;;10.29;57.39
73594;BME280;64760;53.404;23.498;2024-02-16T03:11:26;100276.47;;;10.23;57.89
73594;BME280;64760;53.404;23.498;2024-02-16T03:13:52;100276.94;;;10.26;57.74
73594;BME280;64760;53.404;23.498;2024-02-16T03:16:18;100275.34;;;10.17;58.00
73594;BME280;64760;53.404;23.498;2024-02-16T03:18:45;100277.50;;;10.14;57.88
73594;BME280;64760;53.404;23.498;2024-02-16T03:21:14;100268.53;;;10.07;58.09
73594;BME280;64760;53.404;23.498;2024-02-16T03:23:44;100270.03;;;9.86;58.47
73594;BME280;64760;53.404;23.498;2024-02-16T03:26:17;100263.31;;;9.90;58.84
73594;BME280;64760;53.404;23.498;2024-02-16T03:28:47;100273.66;;;9.94;59.21
73594;BME280;64760;53.404;23.498;2024-02-16T03:31:21;100274.59;;;10.01;58.49
73594;BME280;64760;53.404;23.498;2024-02-16T03:33:49;100278.41;;;10.06;58.50
73594;BME280;64760;53.404;23.498;2024-02-16T03:36:15;100286.31;;;10.00;58.53
73594;BME280;64760;53.404;23.498;2024-02-16T03:38:46;100277.56;;;10.06;58.67
73594;BME280;64760;53.404;23.498;2024-02-16T03:41:20;100277.03;;;10.10;58.54
73594;BME280;64760;53.404;23.498;2024-02-16T03:43:47;100275.19;;;10.11;58.72
73594;BME280;64760;53.404;23.498;2024-02-16T03:46:13;100274.50;;;10.17;58.40
73594;BME280;64760;53.404;23.498;2024-02-16T03:48:40;100270.53;;;10.05;58.48
73594;BME280;64760;53.404;23.498;2024-02-16T03:51:06;100269.84;;;9.88;59.24
73594;BME280;64760;53.404;23.498;2024-02-16T03:53:33;100272.41;;;9.81;59.82
73594;BME280;64760;53.404;23.498;2024-02-16T03:56:00;100269.69;;;9.67;60.05
73594;BME280;64760;53.404;23.498;2024-02-16T03:58:26;100269.44;;;9.76;59.99
73594;BME280;64760;53.404;23.498;2024-02-16T04:00:52;100262.84;;;9.87;59.28
73594;BME280;64760;53.404;23.498;2024-02-16T04:03:19;100267.94;;;9.74;59.77
73594;BME280;64760;53.404;23.498;2024-02-16T04:05:45;100270.72;;;9.80;59.78
73594;BME280;64760;53.404;23.498;2024-02-16T04:08:11;100266.81;;;9.68;60.10
73594;BME280;64760;53.404;23.498;2024-02-16T04:10:37;100259.38;;;9.78;59.75
73594;BME280;64760;53.404;23.498;2024-02-16T04:13:04;100270.88;;;9.87;59.91
73594;BME280;64760;53.404;23.498;2024-02-16T04:15:30;100266.00;;;9.90;59.55
73594;BME280;64760;53.404;23.498;2024-02-16T04:17:56;100264.38;;;9.81;59.59
73594;BME280;64760;53.404;23.498;2024-02-16T04:20:22;100264.47;;;9.88;59.39
73594;BME280;64760;53.404;23.498;2024-02-16T04:22:49;100258.78;;;9.91;59.10
73594;BME280;64760;53.404;23.498;2024-02-16T04:25:15;100255.44;;;9.89;59.23
73594;BME280;64760;53.404;23.498;2024-02-16T04:27:41;100248.13;;;10.06;58.88
73594;BME280;64760;53.404;23.498;2024-02-16T04:30:07;100250.69;;;9.99;59.25
73594;BME280;64760;53.404;23.498;2024-02-16T04:32:34;100243.25;;;9.86;59.39
73594;BME280;64760;53.404;23.498;2024-02-16T04:35:00;100242.28;;;10.02;58.82
73594;BME280;64760;53.404;23.498;2024-02-16T04:37:26;100240.78;;;10.00;59.00
73594;BME280;64760;53.404;23.498;2024-02-16T04:39:52;100241.94;;;9.82;59.41
73594;BME280;64760;53.404;23.498;2024-02-16T04:42:19;100242.91;;;9.89;59.37
73594;BME280;64760;53.404;23.498;2024-02-16T04:44:45;100244.50;;;9.76;59.55
73594;BME280;64760;53.404;23.498;2024-02-16T04:47:11;100248.69;;;9.78;59.77
73594;BME280;64760;53.404;23.498;2024-02-16T04:49:37;100249.00;;;9.75;59.67
73594;BME280;64760;53.404;23.498;2024-02-16T04:52:04;100253.84;;;9.80;59.43
73594;BME280;64760;53.404;23.498;2024-02-16T04:54:30;100256.19;;;9.83;59.43
73594;BME280;64760;53.404;23.498;2024-02-16T04:56:56;100256.88;;;9.77;59.41
73594;BME280;64760;53.404;23.498;2024-02-16T04:59:22;100259.38;;;9.78;59.85
73594;BME280;64760;53.404;23.498;2024-02-16T05:01:49;100255.81;;;9.86;59.14
73594;BME280;64760;53.404;23.498;2024-02-16T05:04:15;100258.84;;;9.83;59.25
73594;BME280;64760;53.404;23.498;2024-02-16T05:06:45;100261.69;;;9.81;59.36
73594;BME280;64760;53.404;23.498;2024-02-16T05:09:12;100270.44;;;9.98;59.09
73594;BME280;64760;53.404;23.498;2024-02-16T05:11:43;100269.13;;;9.94;59.14
73594;BME280;64760;53.404;23.498;2024-02-16T05:14:10;100267.41;;;9.78;59.33
73594;BME280;64760;53.404;23.498;2024-02-16T05:16:46;100270.44;;;9.75;59.21
73594;BME280;64760;53.404;23.498;2024-02-16T05:19:13;100275.19;;;9.88;58.83
73594;BME280;64760;53.404;23.498;2024-02-16T05:21:40;100276.41;;;9.85;59.08
73594;BME280;64760;53.404;23.498;2024-02-16T05:24:06;100282.44;;;9.79;59.18
73594;BME280;64760;53.404;23.498;2024-02-16T05:26:32;100272.81;;;9.70;59.27
73594;BME280;64760;53.404;23.498;2024-02-16T05:28:59;100279.13;;;9.77;59.65
73594;BME280;64760;53.404;23.498;2024-02-16T05:31:26;100281.13;;;9.75;59.05
73594;BME280;64760;53.404;23.498;2024-02-16T05:33:52;100284.22;;;9.64;59.12
73594;BME280;64760;53.404;23.498;2024-02-16T05:36:22;100282.59;;;9.63;59.26
73594;BME280;64760;53.404;23.498;2024-02-16T05:38:53;100289.34;;;9.51;59.73
73594;BME280;64760;53.404;23.498;2024-02-16T05:41:22;100289.38;;;9.43;59.84
73594;BME280;64760;53.404;23.498;2024-02-16T05:43:48;100285.72;;;9.36;60.12
73594;BME280;64760;53.404;23.498;2024-02-16T05:46:16;100292.28;;;9.33;59.81
73594;BME280;64760;53.404;23.498;2024-02-16T05:48:43;100304.44;;;9.36;59.82
73594;BME280;64760;53.404;23.498;2024-02-16T05:51:10;100301.94;;;9.04;60.40
73594;BME280;64760;53.404;23.498;2024-02-16T05:53:39;100297.69;;;8.70;61.27
73594;BME280;64760;53.404;23.498;2024-02-16T05:56:06;100304.53;;;8.65;62.05
73594;BME280;64760;53.404;23.498;2024-02-16T05:58:32;100300.88;;;8.58;61.98
73594;BME280;64760;53.404;23.498;2024-02-16T06:01:00;100305.25;;;8.42;62.42
73594;BME280;64760;53.404;23.498;2024-02-16T06:03:26;100310.25;;;8.29;62.88
73594;BME280;64760;53.404;23.498;2024-02-16T06:05:53;100313.41;;;8.17;63.20
73594;BME280;64760;53.404;23.498;2024-02-16T06:08:19;100321.09;;;8.12;63.28
73594;BME280;64760;53.404;23.498;2024-02-16T06:10:46;100318.72;;;8.00;63.58
73594;BME280;64760;53.404;23.498;2024-02-16T06:13:20;100322.41;;;7.99;63.75
73594;BME280;64760;53.404;23.498;2024-02-16T06:15:47;100328.75;;;7.90;64.37
73594;BME280;64760;53.404;23.498;2024-02-16T06:18:13;100330.06;;;7.78;65.03
73594;BME280;64760;53.404;23.498;2024-02-16T06:20:39;100333.22;;;7.74;65.03
73594;BME280;64760;53.404;23.498;2024-02-16T06:23:05;100338.06;;;7.78;64.92
73594;BME280;64760;53.404;23.498;2024-02-16T06:25:32;100331.03;;;7.77;65.51
73594;BME280;64760;53.404;23.498;2024-02-16T06:27:58;100335.38;;;7.78;65.25
73594;BME280;64760;53.404;23.498;2024-02-16T06:30:25;100333.88;;;7.68;65.58
73594;BME280;64760;53.404;23.498;2024-02-16T06:32:51;100334.97;;;7.49;66.57
73594;BME280;64760;53.404;23.498;2024-02-16T06:35:20;100334.03;;;7.66;66.61
73594;BME280;64760;53.404;23.498;2024-02-16T06:37:46;100337.38;;;7.68;66.33
73594;BME280;64760;53.404;23.498;2024-02-16T06:40:12;100338.22;;;7.77;66.45
73594;BME280;64760;53.404;23.498;2024-02-16T06:42:38;100347.38;;;7.74;65.97
73594;BME280;64760;53.404;23.498;2024-02-16T06:45:05;100350.06;;;7.82;66.34
73594;BME280;64760;53.404;23.498;2024-02-16T06:47:32;100344.06;;;7.72;66.62
73594;BME280;64760;53.404;23.498;2024-02-16T06:49:59;100343.41;;;7.78;66.22
73594;BME280;64760;53.404;23.498;2024-02-16T06:52:25;100345.91;;;7.80;66.45
73594;BME280;64760;53.404;23.498;2024-02-16T06:54:51;100349.94;;;8.00;65.39
73594;BME280;64760;53.404;23.498;2024-02-16T06:57:18;100344.06;;;7.80;66.13
73594;BME280;64760;53.404;23.498;2024-02-16T06:59:46;100349.72;;;7.77;66.68
73594;BME280;64760;53.404;23.498;2024-02-16T07:02:12;100346.13;;;8.11;65.34
73594;BME280;64760;53.404;23.498;2024-02-16T07:04:40;100340.44;;;8.22;64.73
73594;BME280;64760;53.404;23.498;2024-02-16T07:07:06;100339.25;;;8.24;64.82
73594;BME280;64760;53.404;23.498;2024-02-16T07:09:32;100338.50;;;8.32;64.67
73594;BME280;64760;53.404;23.498;2024-02-16T07:11:58;100345.31;;;8.51;63.75
73594;BME280;64760;53.404;23.498;2024-02-16T07:14:25;100343.94;;;8.79;62.82
73594;BME280;64760;53.404;23.498;2024-02-16T07:16:51;100343.97;;;8.71;62.48
73594;BME280;64760;53.404;23.498;2024-02-16T07:19:18;100346.22;;;8.98;62.10
73594;BME280;64760;53.404;23.498;2024-02-16T07:21:44;100349.50;;;9.16;61.49
73594;BME280;64760;53.404;23.498;2024-02-16T07:24:10;100351.28;;;9.32;60.73
73594;BME280;64760;53.404;23.498;2024-02-16T07:26:36;100342.09;;;9.34;60.48
73594;BME280;64760;53.404;23.498;2024-02-16T07:29:03;100333.03;;;9.74;59.55
73594;BME280;64760;53.404;23.498;2024-02-16T07:31:33;100341.50;;;10.09;58.78
73594;BME280;64760;53.404;23.498;2024-02-16T07:34:01;100341.56;;;10.01;58.37
73594;BME280;64760;53.404;23.498;2024-02-16T07:36:27;100343.78;;;10.20;58.35
73594;BME280;64760;53.404;23.498;2024-02-16T07:38:53;100338.28;;;10.13;58.50
73594;BME280;64760;53.404;23.498;2024-02-16T07:41:20;100336.84;;;10.48;57.24
73594;BME280;64760;53.404;23.498;2024-02-16T07:43:47;100346.88;;;10.54;56.94
73594;BME280;64760;53.404;23.498;2024-02-16T07:46:13;100351.25;;;10.47;57.12
73594;BME280;64760;53.404;23.498;2024-02-16T07:48:40;100349.31;;;10.78;56.52
73594;BME280;64760;53.404;23.498;2024-02-16T07:51:06;100350.13;;;10.79;56.21
73594;BME280;64760;53.404;23.498;2024-02-16T07:53:33;100337.31;;;11.04;55.56
73594;BME280;64760;53.404;23.498;2024-02-16T07:56:00;100345.56;;;11.02;55.20
73594;BME280;64760;53.404;23.498;2024-02-16T07:58:26;100336.09;;;10.92;55.71
73594;BME280;64760;53.404;23.498;2024-02-16T08:00:52;100342.03;;;11.02;55.49
73594;BME280;64760;53.404;23.498;2024-02-16T08:03:21;100347.66;;;11.07;55.90
73594;BME280;64760;53.404;23.498;2024-02-16T08:05:47;100345.25;;;10.97;55.62
73594;BME280;64760;53.404;23.498;2024-02-16T08:08:14;100344.53;;;11.18;55.41
73594;BME280;64760;53.404;23.498;2024-02-16T08:10:40;100330.94;;;11.34;55.19
73594;BME280;64760;53.404;23.498;2024-02-16T08:13:06;100331.75;;;11.20;54.86
73594;BME280;64760;53.404;23.498;2024-02-16T08:15:32;100334.63;;;11.18;55.17
73594;BME280;64760;53.404;23.498;2024-02-16T08:17:59;100326.25;;;11.43;54.79
73594;BME280;64760;53.404;23.498;2024-02-16T08:20:25;100330.66;;;11.80;54.61
73594;BME280;64760;53.404;23.498;2024-02-16T08:22:51;100328.81;;;11.80;54.08
73594;BME280;64760;53.404;23.498;2024-02-16T08:25:17;100325.22;;;11.73;54.06
73594;BME280;64760;53.404;23.498;2024-02-16T08:27:44;100325.81;;;11.90;53.95
73594;BME280;64760;53.404;23.498;2024-02-16T08:30:10;100328.13;;;11.93;54.07
73594;BME280;64760;53.404;23.498;2024-02-16T08:32:37;100335.28;;;12.07;53.73
73594;BME280;64760;53.404;23.498;2024-02-16T08:35:03;100332.88;;;12.12;53.57
73594;BME280;64760;53.404;23.498;2024-02-16T08:37:30;100338.22;;;11.91;53.21
73594;BME280;64760;53.404;23.498;2024-02-16T08:39:56;100335.91;;;11.88;53.11
73594;BME280;64760;53.404;23.498;2024-02-16T08:42:22;100338.19;;;12.05;53.55
73594;BME280;64760;53.404;23.498;2024-02-16T08:44:49;100329.19;;;11.77;54.20
73594;BME280;64760;53.404;23.498;2024-02-16T08:47:15;100331.41;;;12.09;53.25
73594;BME280;64760;53.404;23.498;2024-02-16T08:49:42;100339.53;;;12.16;53.46
73594;BME280;64760;53.404;23.498;2024-02-16T08:52:08;100344.84;;;12.58;52.23
73594;BME280;64760;53.404;23.498;2024-02-16T08:54:34;100336.69;;;12.45;52.21
73594;BME280;64760;53.404;23.498;2024-02-16T08:57:01;100339.25;;;12.53;51.77
73594;BME280;64760;53.404;23.498;2024-02-16T08:59:27;100328.28;;;12.83;51.70
73594;BME280;64760;53.404;23.498;2024-02-16T09:01:55;100335.16;;;13.13;51.39
73594;BME280;64760;53.404;23.498;2024-02-16T09:04:21;100336.72;;;13.35;50.99
73594;BME280;64760;53.404;23.498;2024-02-16T09:06:47;100330.91;;;13.32;50.93
73594;BME280;64760;53.404;23.498;2024-02-16T09:09:14;100328.81;;;13.34;50.91
73594;BME280;64760;53.404;23.498;2024-02-16T09:11:41;100323.00;;;13.30;50.37
73594;BME280;64760;53.404;23.498;2024-02-16T09:14:07;100334.59;;;13.24;50.25
73594;BME280;64760;53.404;23.498;2024-02-16T09:16:34;100331.91;;;13.72;50.43
73594;BME280;64760;53.404;23.498;2024-02-16T09:19:00;100332.31;;;13.69;50.15
73594;BME280;64760;53.404;23.498;2024-02-16T09:21:26;100330.22;;;13.71;49.75
73594;BME280;64760;53.404;23.498;2024-02-16T09:23:55;100323.88;;;13.85;49.74
73594;BME280;64760;53.404;23.498;2024-02-16T09:26:27;100323.63;;;13.86;49.29
73594;BME280;64760;53.404;23.498;2024-02-16T09:28:57;100326.56;;;13.98;49.49
73594;BME280;64760;53.404;23.498;2024-02-16T09:31:23;100329.97;;;13.59;50.13
73594;BME280;64760;53.404;23.498;2024-02-16T09:33:51;100323.69;;;13.93;49.38
73594;BME280;64760;53.404;23.498;2024-02-16T09:36:18;100324.09;;;14.09;49.36
73594;BME280;64760;53.404;23.498;2024-02-16T09:38:44;100333.47;;;14.20;49.19
73594;BME280;64760;53.404;23.498;2024-02-16T09:41:10;100326.41;;;14.26;49.19
73594;BME280;64760;53.404;23.498;2024-02-16T09:43:37;100339.06;;;14.12;48.91
73594;BME280;64760;53.404;23.498;2024-02-16T09:46:05;100338.88;;;14.27;48.70
73594;BME280;64760;53.404;23.498;2024-02-16T09:48:32;100340.38;;;14.36;48.46
73594;BME280;64760;53.404;23.498;2024-02-16T09:50:58;100337.03;;;14.53;48.03
73594;BME280;64760;53.404;23.498;2024-02-16T09:53:28;100332.66;;;14.33;47.92
73594;BME280;64760;53.404;23.498;2024-02-16T09:55:55;100338.69;;;14.41;47.93
73594;BME280;64760;53.404;23.498;2024-02-16T09:58:22;100331.66;;;14.40;48.29
73594;BME280;64760;53.404;23.498;2024-02-16T10:00:52;100326.06;;;14.48;48.08
73594;BME280;64760;53.404;23.498;2024-02-16T10:03:30;100321.69;;;14.61;47.49
73594;BME280;64760;53.404;23.498;2024-02-16T10:06:09;100314.63;;;14.60;47.75
73594;BME280;64760;53.404;23.498;2024-02-16T10:08:53;100317.50;;;15.04;46.71
73594;BME280;64760;53.404;23.498;2024-02-16T10:11:22;100310.63;;;15.01;47.01
73594;BME280;64760;53.404;23.498;2024-02-16T10:13:59;100312.03;;;15.17;46.55
73594;BME280;64760;53.404;23.498;2024-02-16T10:16:27;100309.22;;;15.57;45.49
73594;BME280;64760;53.404;23.498;2024-02-16T10:18:57;100314.97;;;15.16;46.33
73594;BME280;64760;53.404;23.498;2024-02-16T10:21:30;100310.81;;;15.13;46.21
73594;BME280;64760;53.404;23.498;2024-02-16T10:24:01;100313.50;;;15.20;46.60
73594;BME280;64760;53.404;23.498;2024-02-16T10:26:29;100310.47;;;14.83;46.71
73594;BME280;64760;53.404;23.498;2024-02-16T10:28:56;100299.69;;;14.77;47.76
73594;BME280;64760;53.404;23.498;2024-02-16T10:31:24;100305.25;;;14.95;47.49
73594;BME280;64760;53.404;23.498;2024-02-16T10:33:57;100305.22;;;15.08;47.15
73594;BME280;64760;53.404;23.498;2024-02-16T10:36:28;100304.38;;;15.14;47.90
73594;BME280;64760;53.404;23.498;2024-02-16T10:38:55;100305.00;;;15.10;47.27
73594;BME280;64760;53.404;23.498;2024-02-16T10:41:27;100307.56;;;14.78;48.03
73594;BME280;64760;53.404;23.498;2024-02-16T10:43:55;100311.72;;;14.54;48.76
73594;BME280;64760;53.404;23.498;2024-02-16T10:46:23;100297.16;;;14.88;47.97
73594;BME280;64760;53.404;23.498;2024-02-16T10:48:50;100303.38;;;14.95;47.97
73594;BME280;64760;53.404;23.498;2024-02-16T10:51:23;100301.22;;;15.17;47.70
73594;BME280;64760;53.404;23.498;2024-02-16T10:53:51;100302.94;;;15.12;47.78
73594;BME280;64760;53.404;23.498;2024-02-16T10:56:33;100295.25;;;15.02;47.49
73594;BME280;64760;53.404;23.498;2024-02-16T10:59:03;100300.09;;;14.74;48.07
73594;BME280;64760;53.404;23.498;2024-02-16T11:01:41;100294.28;;;14.77;48.21
73594;BME280;64760;53.404;23.498;2024-02-16T11:04:11;100291.78;;;14.62;48.46
73594;BME280;64760;53.404;23.498;2024-02-16T11:06:53;100285.56;;;14.75;48.45
73594;BME280;64760;53.404;23.498;2024-02-16T11:09:35;100291.38;;;14.78;47.61
73594;BME280;64760;53.404;23.498;2024-02-16T11:12:02;100280.53;;;14.91;48.01
73594;BME280;64760;53.404;23.498;2024-02-16T11:14:46;100267.88;;;14.85;48.37
73594;BME280;64760;53.404;23.498;2024-02-16T11:17:20;100265.59;;;14.82;47.98
73594;BME280;64760;53.404;23.498;2024-02-16T11:19:47;100277.69;;;14.53;48.27
73594;BME280;64760;53.404;23.498;2024-02-16T11:22:18;100264.13;;;14.99;48.25
73594;BME280;64760;53.404;23.498;2024-02-16T11:24:45;100268.66;;;15.05;48.00
73594;BME280;64760;53.404;23.498;2024-02-16T11:27:13;100259.72;;;15.05;47.56
73594;BME280;64760;53.404;23.498;2024-02-16T11:29:41;100255.22;;;14.86;47.35
73594;BME280;64760;53.404;23.498;2024-02-16T11:32:09;100255.31;;;15.24;47.20
73594;BME280;64760;53.404;23.498;2024-02-16T11:34:40;100243.09;;;15.15;47.41
73594;BME280;64760;53.404;23.498;2024-02-16T11:37:07;100245.31;;;15.31;47.63
73594;BME280;64760;53.404;23.498;2024-02-16T11:39:33;100250.13;;;15.22;47.71
73594;BME280;64760;53.404;23.498;2024-02-16T11:44:31;100248.13;;;15.49;47.44
73594;BME280;64760;53.404;23.498;2024-02-16T11:46:59;100239.00;;;14.99;47.96
73594;BME280;64760;53.404;23.498;2024-02-16T11:49:26;100239.81;;;14.93;48.62
73594;BME280;64760;53.404;23.498;2024-02-16T11:51:52;100230.84;;;15.12;48.11
73594;BME280;64760;53.404;23.498;2024-02-16T11:54:19;100233.47;;;15.25;48.56
73594;BME280;64760;53.404;23.498;2024-02-16T11:56:46;100234.00;;;15.02;48.09
73594;BME280;64760;53.404;23.498;2024-02-16T11:59:14;100227.66;;;15.28;48.63
73594;BME280;64760;53.404;23.498;2024-02-16T12:04:27;100231.06;;;15.11;48.76
73594;BME280;64760;53.404;23.498;2024-02-16T12:06:56;100231.31;;;14.96;48.93
73594;BME280;64760;53.404;23.498;2024-02-16T12:09:23;100234.78;;;15.16;48.91
73594;BME280;64760;53.404;23.498;2024-02-16T12:11:52;100230.69;;;15.00;48.40
73594;BME280;64760;53.404;23.498;2024-02-16T12:14:20;100233.69;;;14.73;49.05
73594;BME280;64760;53.404;23.498;2024-02-16T12:16:51;100225.63;;;15.17;48.88
73594;BME280;64760;53.404;23.498;2024-02-16T12:19:21;100220.66;;;15.14;48.70
73594;BME280;64760;53.404;23.498;2024-02-16T12:21:53;100218.44;;;15.42;48.06
73594;BME280;64760;53.404;23.498;2024-02-16T12:24:20;100212.25;;;15.29;48.37
73594;BME280;64760;53.404;23.498;2024-02-16T12:26:47;100205.56;;;15.00;48.77
73594;BME280;64760;53.404;23.498;2024-02-16T12:29:13;100199.72;;;15.03;48.68
73594;BME280;64760;53.404;23.498;2024-02-16T12:31:40;100198.16;;;15.27;48.25
73594;BME280;64760;53.404;23.498;2024-02-16T12:34:07;100202.63;;;15.53;48.37
73594;BME280;64760;53.404;23.498;2024-02-16T12:36:35;100207.19;;;15.45;47.97
73594;BME280;64760;53.404;23.498;2024-02-16T12:39:02;100198.81;;;15.22;47.91
73594;BME280;64760;53.404;23.498;2024-02-16T12:41:35;100191.50;;;15.29;48.15
73594;BME280;64760;53.404;23.498;2024-02-16T12:44:04;100187.44;;;15.07;48.62
73594;BME280;64760;53.404;23.498;2024-02-16T12:46:32;100191.13;;;15.64;49.67
73594;BME280;64760;53.404;23.498;2024-02-16T12:48:58;100179.16;;;15.78;48.07